• Join FlightAware (Why Join?)
  • Login
  • US Flag 
05:49PM EDT


 

Airport Tracker/Info


-or-


 

Live Flight TrackerFlight Track Log ✈ JBU808 ✈ 18-Mar-2014 ✈ TIST / STT - TJSJ / SJU

Flight Track Log - Related Links

Times and Time Zones

All times are in EDT time to prevent confusion due to time zone crossing. See the JBU808 flight status page for this flight to view local times or setup timezone preferences in your user account.

Time Position Orientation Groundspeed Altitude Reporting Facility
EDT Latitude Longitude Course Direction KTS MPH feet Rate Location/Type
02:20PM 18.3333 -64.9500 281° West 140 161 1,500  Level San Juan Center
02:21PM 18.3000 -64.9667 205° Southwest 210 242 3,200 2,760 Climbing San Juan Center
02:22PM 18.2833 -65.0500 258° West 290 334 7,100 2,400 Climbing San Juan Center
02:23PM 18.2851 -65.2428 281° West  Level FlightAware Approximate
02:23PM 18.3000 -65.1333 282° West 300 345 8,000  Level San Juan Center
02:24PM 18.2982 -65.3125 281° West  Level FlightAware Approximate
02:24PM 18.3167 -65.2167 282° West 300 345 8,000  Level San Juan Center
02:25PM 18.3113 -65.3822 281° West  Level FlightAware Approximate
02:25PM 18.3333 -65.3000 282° West 300 345 8,000  Level San Juan Center
02:26PM 18.3500 -65.3833 282° West 300 345 8,000  Level San Juan Center
02:27PM 18.3500 -65.4667 270° West 290 334 8,000 -60 Level San Juan Center
02:28PM 18.3333 -65.5667 260° West 300 345 7,900 -600 Descending San Juan Center
02:29PM 18.3333 -65.6500 270° West 300 345 6,900 -960 Descending San Juan Center
02:30PM 18.3500 -65.7333 282° West 290 334 6,000 -480 Descending San Juan Center
02:31PM 18.3500 -65.8167 270° West 290 334 6,000  Level San Juan Center
02:32PM 18.3500 -65.9000 270° West 250 288 6,000 -60 Level San Juan Center
02:33PM 18.3667 -65.9500 289° West 220 253 5,900 -720 Descending San Juan Center
02:34PM 18.3667 -66.0167 270° West 220 253 4,600 -1,380 Descending San Juan Center
02:35PM 18.3667 -66.0833 270° West 210 242 3,200 -1,260 Descending San Juan Center
02:36PM 18.4167 -66.1000 342° North 190 219 2,100 -1,020 Descending San Juan Center
02:37PM 18.4333 -66.0500 71° East 140 161 1,200 -900 Descending San Juan Center
02:38PM 18.4333 -66.0167 90° East 130 150 400 -840 Descending San Juan Center